Terminal Aerodrome Forecast
Issued by NWS

Home | Current Version | Previous Version | Text Only | Print | Product List | Glossary On
Versions: 1 2 3 4 5 6 7 8 9 10 11 12 13 14 15 16 17
000
FTUS46 KMTR 222300 RRA
TAFSTS
TAF
KSTS 222354Z 2300/2324 35005KT P6SM SKC
     FM230700 32003KT 6SM BR SCT001
      TEMPO 2312/2316 1SM BR VV001
     FM231700 VRB04KT P6SM SKC=

USA.gov is the U.S. government's official web portal to all federal, state and local government web resources and services.